Time;durP1;ratioP1;P1;durP2;ratioP2;P2;SDS_P1;SDS_P2;PMS_P1;PMS_P2;Temp;Humidity;BMP_temperature;BMP_pressure;BME280_temperature;BME280_humidity;BME280_pressure;Samples;Min_cycle;Max_cycle;Signal;HPM_P1;HPM_P2
2023/02/10 00:02:29;;;;;;;19.33;7.50;;;-5.90;99.90;;;;;;8231898;28;20514;-77
2023/02/10 00:06:30;;;;;;;16.10;7.45;;;-5.90;99.90;;;;;;8233841;28;20031;-77
2023/02/10 00:10:30;;;;;;;13.85;6.90;;;-6.00;99.90;;;;;;8230911;28;20486;-77
2023/02/10 00:14:31;;;;;;;11.15;6.68;;;-6.20;99.90;;;;;;8228436;28;20042;-77
2023/02/10 00:18:32;;;;;;;19.85;8.70;;;-6.30;99.90;;;;;;8232572;28;20033;-77
2023/02/10 00:22:32;;;;;;;18.88;6.65;;;-6.30;99.90;;;;;;8232773;28;20475;-77
2023/02/10 00:26:33;;;;;;;16.33;6.55;;;-6.30;99.90;;;;;;8231993;28;20052;-77
2023/02/10 00:30:34;;;;;;;12.40;6.88;;;-6.50;99.90;;;;;;8232111;28;20499;-77
2023/02/10 00:34:34;;;;;;;18.15;8.75;;;-6.40;99.90;;;;;;8233616;28;20047;-77
2023/02/10 00:38:35;;;;;;;18.30;8.45;;;-6.50;99.90;;;;;;8231976;28;20019;-76
2023/02/10 00:42:36;;;;;;;24.33;7.32;;;-6.50;99.90;;;;;;8232035;28;20057;-78
2023/02/10 00:46:37;;;;;;;22.33;8.45;;;-6.50;99.90;;;;;;8232950;28;20037;-78
2023/02/10 00:50:37;;;;;;;17.83;6.95;;;-6.30;99.90;;;;;;8232993;28;20594;-78
2023/02/10 00:54:38;;;;;;;16.13;6.00;;;-6.30;99.90;;;;;;8232019;28;20033;-77
2023/02/10 00:58:38;;;;;;;15.27;7.53;;;-6.30;99.90;;;;;;8232256;28;20606;-78
2023/02/10 01:02:39;;;;;;;18.67;8.43;;;-6.20;99.90;;;;;;8227699;28;20034;-77
2023/02/10 01:06:39;;;;;;;13.25;6.70;;;-6.30;99.90;;;;;;8231459;28;20053;-77
2023/02/10 01:10:40;;;;;;;14.95;6.53;;;-6.30;99.90;;;;;;8232027;28;20361;-78
2023/02/10 01:14:41;;;;;;;17.38;8.02;;;-6.30;99.90;;;;;;8228802;28;20029;-78
2023/02/10 01:18:42;;;;;;;14.88;6.63;;;-6.40;99.90;;;;;;8227400;28;20388;-78
2023/02/10 01:22:43;;;;;;;12.35;6.25;;;-6.40;99.90;;;;;;8232831;28;20023;-78
2023/02/10 01:26:43;;;;;;;22.38;8.63;;;-6.40;99.90;;;;;;8231838;28;20089;-78
2023/02/10 01:30:44;;;;;;;10.38;6.13;;;-6.50;99.90;;;;;;8232834;28;20022;-78
2023/02/10 01:34:44;;;;;;;12.30;6.93;;;-6.50;99.90;;;;;;8232685;28;20027;-78
2023/02/10 01:38:45;;;;;;;17.70;7.00;;;-6.40;99.90;;;;;;8231336;28;20381;-78
2023/02/10 01:42:46;;;;;;;13.95;6.63;;;-6.40;99.90;;;;;;8231157;28;20033;-77
2023/02/10 01:46:48;;;;;;;16.05;7.38;;;-6.50;99.90;;;;;;8231368;28;20015;-78
2023/02/10 01:50:56;;;;;;;13.73;7.75;;;-6.50;99.90;;;;;;8231539;28;20697;-77
2023/02/10 01:55:06;;;;;;;19.98;7.90;;;-6.70;99.90;;;;;;8230887;28;20117;-77
2023/02/10 01:59:07;;;;;;;15.35;6.72;;;-6.60;99.90;;;;;;8232342;28;20031;-78
2023/02/10 02:03:09;;;;;;;16.05;5.30;;;-6.50;99.90;;;;;;8230855;28;20050;-78
2023/02/10 02:07:09;;;;;;;12.82;7.70;;;-6.50;99.90;;;;;;8230370;28;20023;-77
2023/02/10 02:11:22;;;;;;;14.48;7.57;;;-6.60;99.90;;;;;;8231075;28;20517;-77
2023/02/10 02:15:50;;;;;;;13.05;7.28;;;-6.80;99.90;;;;;;8227323;28;20046;-77
2023/02/10 02:25:04;;;;;;;8.18;5.68;;;-6.90;99.90;;;;;;8227743;28;20061;-77
2023/02/10 02:29:12;;;;;;;15.90;6.88;;;-7.20;99.90;;;;;;8227199;28;20077;-77
2023/02/10 02:33:31;;;;;;;9.38;4.47;;;-7.20;99.90;;;;;;8228215;28;20026;-77
2023/02/10 02:37:36;;;;;;;17.33;7.13;;;-7.20;99.90;;;;;;8228064;28;20031;-77
2023/02/10 02:41:37;;;;;;;12.27;6.85;;;-7.20;99.90;;;;;;8228011;28;20046;-77
2023/02/10 02:45:52;;;;;;;11.85;6.60;;;-7.30;99.90;;;;;;8229401;28;20419;-77
2023/02/10 02:50:01;;;;;;;15.88;5.18;;;-7.20;99.90;;;;;;8225344;28;20033;-78
2023/02/10 02:54:12;;;;;;;11.13;6.10;;;-7.00;99.90;;;;;;8229651;28;20512;-76
2023/02/10 02:58:35;;;;;;;9.55;6.13;;;-7.00;99.90;;;;;;8230148;28;20487;-77
2023/02/10 03:02:41;;;;;;;15.25;7.43;;;-7.00;99.90;;;;;;8228661;28;20031;-78
2023/02/10 03:06:41;;;;;;;10.05;4.78;;;-7.00;99.90;;;;;;8224240;28;20027;-78
2023/02/10 03:10:42;;;;;;;14.73;7.60;;;-7.00;99.90;;;;;;8228237;28;20074;-79
2023/02/10 03:14:42;;;;;;;8.75;5.82;;;-7.00;99.90;;;;;;8229383;28;20019;-79
2023/02/10 03:18:43;;;;;;;12.07;5.85;;;-7.00;99.90;;;;;;8229401;28;20030;-78
2023/02/10 03:22:43;;;;;;;16.85;6.03;;;-7.00;99.90;;;;;;8225526;28;20038;-77
2023/02/10 03:26:44;;;;;;;11.38;5.60;;;-6.70;99.90;;;;;;8228949;28;20490;-78
2023/02/10 03:30:50;;;;;;;11.80;5.43;;;-6.70;99.90;;;;;;8225974;28;20101;-78
2023/02/10 03:34:50;;;;;;;14.05;6.82;;;-6.70;99.90;;;;;;8226958;28;20085;-76
2023/02/10 03:38:51;;;;;;;8.98;5.70;;;-6.80;99.90;;;;;;8227520;28;20372;-77
2023/02/10 03:42:51;;;;;;;15.40;5.10;;;-6.90;99.90;;;;;;8226532;28;20576;-78
2023/02/10 03:46:52;;;;;;;8.95;4.65;;;-7.00;99.90;;;;;;8221425;28;20022;-77
2023/02/10 03:50:53;;;;;;;10.10;6.53;;;-7.00;99.90;;;;;;8227700;28;20110;-77
2023/02/10 03:54:53;;;;;;;18.92;4.13;;;-6.70;99.90;;;;;;8226229;28;20018;-78
2023/02/10 03:58:54;;;;;;;16.55;7.00;;;-6.50;99.90;;;;;;8222119;28;20037;-78
2023/02/10 04:02:54;;;;;;;12.68;4.50;;;-6.40;99.90;;;;;;8227757;28;20023;-77
2023/02/10 04:06:55;;;;;;;9.57;4.90;;;-6.60;99.90;;;;;;8227563;28;20054;-77
2023/02/10 04:10:55;;;;;;;4.82;3.15;;;-6.70;99.90;;;;;;8227009;28;20073;-77
2023/02/10 04:14:56;;;;;;;8.52;5.20;;;-6.60;99.90;;;;;;8226144;28;20033;-77
2023/02/10 04:18:56;;;;;;;11.20;4.20;;;-6.40;99.90;;;;;;8226811;28;20114;-76
2023/02/10 04:22:57;;;;;;;14.55;6.20;;;-6.40;99.90;;;;;;8227154;28;20423;-76
2023/02/10 04:26:57;;;;;;;12.30;5.10;;;-6.40;99.90;;;;;;8229799;28;20069;-76
2023/02/10 04:31:00;;;;;;;9.30;5.63;;;-6.50;99.90;;;;;;8232145;28;20058;-78
2023/02/10 04:35:01;;;;;;;11.90;6.57;;;-6.80;99.90;;;;;;8232388;28;20061;-77
2023/02/10 04:39:01;;;;;;;8.75;6.38;;;-6.90;99.90;;;;;;8233080;28;20046;-77
2023/02/10 04:43:02;;;;;;;8.77;5.35;;;-6.40;99.90;;;;;;8225626;28;20034;-77
2023/02/10 04:47:06;;;;;;;15.50;7.03;;;-6.30;99.90;;;;;;8220670;28;20027;-78
2023/02/10 04:51:11;;;;;;;16.27;7.10;;;-6.40;99.90;;;;;;8221313;28;20027;-78
2023/02/10 04:55:12;;;;;;;12.57;6.50;;;-6.60;99.90;;;;;;8232317;28;20035;-78
2023/02/10 04:59:13;;;;;;;11.20;6.72;;;-7.00;99.90;;;;;;8232414;28;20034;-78
2023/02/10 05:03:13;;;;;;;9.23;5.70;;;-7.10;99.90;;;;;;8229499;28;20156;-78
2023/02/10 05:07:14;;;;;;;12.50;4.32;;;-7.10;99.90;;;;;;8230339;28;20656;-78
2023/02/10 05:11:15;;;;;;;13.73;6.07;;;-6.80;99.90;;;;;;8233208;28;20027;-78
2023/02/10 05:15:16;;;;;;;6.82;4.28;;;-6.60;99.90;;;;;;8227805;28;20033;-76
2023/02/10 05:19:17;;;;;;;14.95;5.35;;;-7.00;99.90;;;;;;8227131;28;20018;-76
2023/02/10 05:23:17;;;;;;;17.00;5.97;;;-7.30;99.90;;;;;;8229915;28;20034;-77
2023/02/10 05:27:18;;;;;;;11.57;5.35;;;-7.50;99.90;;;;;;8228841;28;20606;-76
2023/02/10 05:31:19;;;;;;;16.67;7.45;;;-7.60;99.90;;;;;;8227356;28;20038;-77
2023/02/10 05:35:19;;;;;;;21.30;7.80;;;-7.60;99.90;;;;;;8231128;28;20026;-79
2023/02/10 05:39:22;;;;;;;15.75;6.35;;;-7.70;99.90;;;;;;8231535;28;20027;-78
2023/02/10 05:43:23;;;;;;;7.30;5.03;;;-7.80;99.90;;;;;;8228890;28;20402;-78
2023/02/10 05:47:23;;;;;;;11.05;6.28;;;-7.80;99.90;;;;;;8227673;28;20019;-78
2023/02/10 05:51:24;;;;;;;13.25;6.35;;;-7.70;99.90;;;;;;8225914;28;20117;-78
2023/02/10 05:55:25;;;;;;;8.88;4.68;;;-7.50;99.90;;;;;;8227377;28;20026;-78
2023/02/10 05:59:25;;;;;;;7.80;5.10;;;-7.40;99.90;;;;;;8227926;28;20026;-78
2023/02/10 06:03:26;;;;;;;7.53;3.55;;;-7.60;99.90;;;;;;8231256;28;20061;-78
2023/02/10 06:07:26;;;;;;;10.38;4.68;;;-7.70;99.90;;;;;;8228068;28;20077;-78
2023/02/10 06:11:27;;;;;;;15.40;6.35;;;-7.70;99.90;;;;;;8230138;28;20082;-78
2023/02/10 06:15:27;;;;;;;14.30;6.55;;;-7.70;99.90;;;;;;8230858;28;20030;-77
2023/02/10 06:19:28;;;;;;;13.93;6.30;;;-7.70;99.90;;;;;;8231285;28;20054;-78
2023/02/10 06:23:28;;;;;;;18.10;5.63;;;-7.80;99.90;;;;;;8230270;28;20415;-78
2023/02/10 06:27:29;;;;;;;10.13;4.78;;;-8.00;99.90;;;;;;8229912;28;20042;-78
2023/02/10 06:31:29;;;;;;;14.57;6.07;;;-8.00;99.90;;;;;;8229918;28;20736;-77
2023/02/10 06:35:30;;;;;;;11.50;5.68;;;-7.80;99.90;;;;;;8229544;28;20030;-78
2023/02/10 06:39:30;;;;;;;12.27;6.05;;;-7.90;99.90;;;;;;8229185;28;20019;-80
2023/02/10 06:43:31;;;;;;;7.25;4.60;;;-7.90;99.90;;;;;;8229166;28;20050;-79
2023/02/10 06:47:32;;;;;;;12.13;5.13;;;-7.90;99.90;;;;;;8230471;28;20022;-78
2023/02/10 06:51:32;;;;;;;11.55;5.43;;;-7.90;99.90;;;;;;8227822;28;20030;-78
2023/02/10 06:55:34;;;;;;;12.90;5.90;;;-7.80;99.90;;;;;;8229123;28;20030;-78
2023/02/10 06:59:35;;;;;;;8.65;4.32;;;-7.70;99.90;;;;;;8228940;28;20030;-77
2023/02/10 07:03:36;;;;;;;8.57;3.50;;;-7.60;99.90;;;;;;8226367;28;20023;-79
2023/02/10 07:07:38;;;;;;;11.27;6.45;;;-7.50;99.90;;;;;;8228482;28;20478;-78
2023/02/10 07:11:38;;;;;;;10.93;6.32;;;-7.10;99.90;;;;;;8228318;28;20023;-78
2023/02/10 07:15:39;;;;;;;13.75;7.28;;;-7.00;99.90;;;;;;8228132;28;20458;-77
2023/02/10 07:19:39;;;;;;;19.92;7.88;;;-7.00;99.90;;;;;;8229598;28;20031;-78
2023/02/10 07:23:40;;;;;;;18.05;8.45;;;-7.00;99.90;;;;;;8229687;28;20054;-77
2023/02/10 07:27:41;;;;;;;9.93;4.85;;;-6.90;99.90;;;;;;8229548;28;20038;-78
2023/02/10 07:31:41;;;;;;;9.93;6.38;;;-6.60;99.90;;;;;;8229520;28;20672;-77
2023/02/10 07:35:42;;;;;;;11.75;6.57;;;-6.20;99.90;;;;;;8230184;28;20180;-78
2023/02/10 07:39:42;;;;;;;18.70;7.82;;;-6.10;99.90;;;;;;8229666;28;20049;-77
2023/02/10 07:43:43;;;;;;;18.25;7.43;;;-6.10;99.90;;;;;;8222378;28;20023;-76
2023/02/10 07:47:43;;;;;;;18.48;8.10;;;-6.00;99.90;;;;;;8223179;28;20029;-77
2023/02/10 07:51:44;;;;;;;14.40;7.25;;;-6.00;99.90;;;;;;8227961;28;20077;-78
2023/02/10 07:55:45;;;;;;;11.45;5.70;;;-5.80;99.90;;;;;;8232870;28;20093;-77
2023/02/10 07:59:46;;;;;;;13.60;7.38;;;-5.70;99.90;;;;;;8234463;28;20077;-77
2023/02/10 08:03:46;;;;;;;17.55;6.10;;;-5.50;99.90;;;;;;8234549;28;20018;-78
2023/02/10 08:07:47;;;;;;;17.17;7.28;;;-5.30;99.90;;;;;;8233332;28;20023;-78
2023/02/10 08:11:48;;;;;;;24.95;9.15;;;-5.20;99.90;;;;;;8233522;28;20110;-78
2023/02/10 08:15:48;;;;;;;12.43;5.78;;;-5.00;99.90;;;;;;8230430;28;20023;-78
2023/02/10 08:19:49;;;;;;;10.02;6.18;;;-4.80;99.90;;;;;;8235104;28;20514;-76
2023/02/10 08:23:54;;;;;;;16.13;8.00;;;-4.70;99.90;;;;;;8233460;28;20031;-78
2023/02/10 08:27:55;;;;;;;14.05;5.65;;;-4.50;99.90;;;;;;8235230;28;20391;-77
2023/02/10 08:31:55;;;;;;;12.48;6.57;;;-4.30;99.90;;;;;;8233575;28;20033;-78
2023/02/10 08:35:56;;;;;;;15.57;8.25;;;-4.20;99.90;;;;;;8233165;28;20094;-77
2023/02/10 08:39:58;;;;;;;15.98;7.60;;;-4.00;99.90;;;;;;8233071;28;20506;-77
2023/02/10 08:43:58;;;;;;;18.27;8.95;;;-3.50;99.90;;;;;;8234123;28;20065;-78
2023/02/10 08:48:00;;;;;;;24.58;10.27;;;-3.20;99.90;;;;;;8233680;28;20027;-77
2023/02/10 08:52:01;;;;;;;22.73;10.55;;;-3.20;99.90;;;;;;8232391;28;20038;-77
2023/02/10 08:56:07;;;;;;;23.02;9.88;;;-3.00;99.90;;;;;;8232004;28;20037;-78
2023/02/10 09:00:09;;;;;;;25.45;11.23;;;-3.00;99.90;;;;;;8232059;28;20023;-76
2023/02/10 09:04:09;;;;;;;20.75;9.88;;;-2.80;99.90;;;;;;8232295;28;20023;-77
2023/02/10 09:08:10;;;;;;;17.40;8.68;;;-2.50;99.90;;;;;;8229263;28;20027;-78
2023/02/10 09:12:11;;;;;;;25.90;10.63;;;-2.40;99.90;;;;;;8236835;28;20037;-76
2023/02/10 09:16:12;;;;;;;29.33;11.15;;;-1.90;99.90;;;;;;8236312;28;20496;-77
2023/02/10 09:20:12;;;;;;;21.75;9.95;;;-1.60;99.90;;;;;;8240733;28;20041;-77
2023/02/10 09:24:14;;;;;;;30.15;14.38;;;-1.20;99.90;;;;;;8238373;28;20533;-77
2023/02/10 09:28:15;;;;;;;30.25;11.90;;;-1.10;99.90;;;;;;8242458;28;20019;-76
2023/02/10 09:32:15;;;;;;;23.27;10.00;;;-0.60;99.90;;;;;;8242567;28;20057;-77
2023/02/10 09:36:19;;;;;;;22.08;10.02;;;-0.50;99.90;;;;;;8233701;28;20085;-76
2023/02/10 09:40:27;;;;;;;27.60;12.35;;;0.20;99.90;;;;;;8231962;28;20030;-77
2023/02/10 09:44:34;;;;;;;26.55;11.35;;;0.60;99.90;;;;;;8230166;28;20038;-77
2023/02/10 09:49:12;;;;;;;25.70;11.82;;;0.80;99.90;;;;;;8231102;28;20015;-77
2023/02/10 09:53:21;;;;;;;29.85;14.93;;;1.30;99.90;;;;;;8225611;28;20022;-77
2023/02/10 09:57:32;;;;;;;33.58;14.15;;;1.60;99.90;;;;;;8231244;28;20053;-78
2023/02/10 10:01:49;;;;;;;26.88;13.00;;;2.00;99.90;;;;;;8229456;28;20070;-77
2023/02/10 10:05:59;;;;;;;30.75;13.70;;;2.30;99.90;;;;;;8224175;28;20106;-78
2023/02/10 10:10:07;;;;;;;33.90;15.23;;;2.50;99.90;;;;;;8228461;28;20023;-78
2023/02/10 10:14:17;;;;;;;36.13;16.08;;;2.70;99.90;;;;;;8227893;28;20606;-78
2023/02/10 10:18:18;;;;;;;35.75;14.43;;;3.30;99.90;;;;;;8229386;28;20026;-77
2023/02/10 10:22:46;;;;;;;35.50;15.57;;;3.90;99.90;;;;;;8228878;28;20033;-78
2023/02/10 10:26:54;;;;;;;31.73;14.50;;;4.50;99.90;;;;;;8224718;28;20023;-77
2023/02/10 10:31:01;;;;;;;31.27;14.32;;;5.00;99.90;;;;;;8228494;28;20515;-77
2023/02/10 10:35:11;;;;;;;32.88;14.18;;;5.40;99.90;;;;;;8229966;28;20126;-77
2023/02/10 10:39:37;;;;;;;30.98;13.07;;;5.40;99.90;;;;;;8229048;28;20023;-77
2023/02/10 10:43:49;;;;;;;35.60;13.88;;;5.00;99.90;;;;;;8227661;28;20097;-77
2023/02/10 10:48:00;;;;;;;28.17;12.07;;;4.50;99.90;;;;;;8225777;28;20030;-77
2023/02/10 10:52:02;;;;;;;26.95;11.70;;;4.40;99.90;;;;;;8228439;28;20049;-77
2023/02/10 10:56:17;;;;;;;32.22;13.02;;;4.10;99.90;;;;;;8228252;28;20027;-76
2023/02/10 11:00:24;;;;;;;29.20;12.25;;;4.50;99.90;;;;;;8226484;28;20042;-77
2023/02/10 11:04:28;;;;;;;29.70;12.57;;;4.60;99.90;;;;;;8226626;28;20109;-77
2023/02/10 11:08:34;;;;;;;22.60;11.23;;;4.80;99.90;;;;;;8227037;28;20019;-77
2023/02/10 11:12:39;;;;;;;18.75;9.93;;;4.50;99.90;;;;;;8228623;28;20395;-77
2023/02/10 11:16:51;;;;;;;32.65;13.07;;;4.90;99.90;;;;;;8222309;28;20387;-77
2023/02/10 11:20:58;;;;;;;25.60;12.95;;;6.50;99.90;;;;;;8224758;28;20256;-77
2023/02/10 11:25:01;;;;;;;25.17;12.90;;;8.10;99.90;;;;;;8229619;28;20431;-78
2023/02/10 11:29:10;;;;;;;27.83;12.18;;;9.40;99.90;;;;;;8229579;28;20551;-78
2023/02/10 11:33:21;;;;;;;27.45;13.05;;;9.80;99.90;;;;;;8235698;28;20030;-77
2023/02/10 11:37:32;;;;;;;20.77;10.50;;;8.70;99.90;;;;;;8234752;28;20026;-78
2023/02/10 11:41:33;;;;;;;23.60;11.75;;;8.60;99.90;;;;;;8233651;28;20030;-77
2023/02/10 11:45:34;;;;;;;28.98;13.65;;;10.20;99.90;;;;;;8233530;28;20114;-78
2023/02/10 11:49:36;;;;;;;26.73;13.07;;;10.70;99.90;;;;;;8230822;28;20024;-78
2023/02/10 11:53:38;;;;;;;28.52;13.90;;;11.50;99.90;;;;;;8227343;28;20081;-77
2023/02/10 12:02:52;;;;;;;23.15;11.93;;;11.60;99.90;;;;;;8233005;28;20442;-78
2023/02/10 12:07:17;;;;;;;25.40;12.00;;;12.00;99.50;;;;;;8228632;28;20407;-78
2023/02/10 12:11:31;;;;;;;18.17;9.90;;;11.80;99.20;;;;;;8228749;28;20086;-78
2023/02/10 12:15:40;;;;;;;16.10;9.77;;;10.30;99.90;;;;;;8228092;28;20027;-77
2023/02/10 12:20:01;;;;;;;20.70;10.95;;;10.00;99.90;;;;;;8232357;28;20027;-77
2023/02/10 12:24:52;;;;;;;22.40;9.98;;;9.20;99.90;;;;;;8227832;28;20054;-76
2023/02/10 12:29:18;;;;;;;14.55;8.45;;;10.70;99.50;;;;;;8229217;28;20545;-77
2023/02/10 12:33:40;;;;;;;21.63;10.10;;;10.80;98.50;;;;;;8231518;28;20027;-78
2023/02/10 12:37:43;;;;;;;19.95;9.55;;;11.60;99.00;;;;;;8232297;28;20034;-78
2023/02/10 12:42:01;;;;;;;22.55;8.40;;;11.60;98.40;;;;;;8231594;28;20042;-77
2023/02/10 12:46:35;;;;;;;17.80;8.27;;;12.70;95.10;;;;;;8229749;28;20019;-75
2023/02/10 12:50:50;;;;;;;17.58;8.27;;;10.20;96.90;;;;;;8232102;28;20034;-77
2023/02/10 12:54:57;;;;;;;19.10;8.63;;;7.70;99.90;;;;;;8226367;28;20025;-78
2023/02/10 12:59:06;;;;;;;18.23;7.55;;;6.40;99.90;;;;;;8229571;28;20049;-78
2023/02/10 13:03:12;;;;;;;17.65;8.52;;;5.70;99.90;;;;;;8228592;28;20030;-77
2023/02/10 13:07:37;;;;;;;12.90;7.28;;;5.20;99.90;;;;;;8230865;28;20021;-78
2023/02/10 13:12:03;;;;;;;17.73;7.65;;;5.00;99.90;;;;;;8230657;28;20548;-78
2023/02/10 13:16:08;;;;;;;16.50;7.47;;;4.90;99.90;;;;;;8230938;28;20380;-77
2023/02/10 13:20:19;;;;;;;16.42;8.23;;;4.90;99.90;;;;;;8230154;28;20054;-78
2023/02/10 13:24:41;;;;;;;35.25;17.63;;;4.80;99.90;;;;;;8230703;28;20118;-78
2023/02/10 13:29:02;;;;;;;15.68;6.72;;;4.70;99.90;;;;;;8228174;28;20023;-76
2023/02/10 13:33:31;;;;;;;15.57;6.65;;;4.80;99.90;;;;;;8226905;28;20460;-77
2023/02/10 13:37:39;;;;;;;16.52;7.10;;;4.70;99.90;;;;;;8228432;28;20029;-78
2023/02/10 13:41:45;;;;;;;16.73;7.25;;;4.80;99.90;;;;;;8220332;28;20454;-78
2023/02/10 13:45:51;;;;;;;17.85;7.95;;;4.70;99.90;;;;;;8222185;28;20014;-76
2023/02/10 13:49:57;;;;;;;14.27;6.15;;;4.50;99.90;;;;;;8231685;28;20519;-76
2023/02/10 13:53:58;;;;;;;14.93;7.13;;;4.50;99.90;;;;;;8229719;28;20037;-77
2023/02/10 13:58:03;;;;;;;12.93;5.97;;;4.60;99.90;;;;;;8230980;28;20614;-78
2023/02/10 14:02:17;;;;;;;11.98;6.25;;;4.60;99.90;;;;;;8229274;28;20031;-78
2023/02/10 14:06:17;;;;;;;15.05;6.85;;;4.40;99.90;;;;;;8225870;28;20022;-78
2023/02/10 14:10:21;;;;;;;15.50;7.45;;;4.40;99.90;;;;;;8226177;28;20118;-77
2023/02/10 14:14:32;;;;;;;13.27;6.65;;;4.50;99.90;;;;;;8230314;28;20019;-77
2023/02/10 14:18:36;;;;;;;13.88;7.50;;;4.30;99.90;;;;;;8227498;28;20113;-78
2023/02/10 14:22:37;;;;;;;17.98;8.23;;;4.40;99.90;;;;;;8228783;28;20034;-78
2023/02/10 14:26:43;;;;;;;18.38;6.93;;;4.30;99.90;;;;;;8229284;28;20491;-78
2023/02/10 14:30:45;;;;;;;13.98;5.25;;;4.40;99.90;;;;;;8228400;28;20514;-77
2023/02/10 14:35:00;;;;;;;12.93;5.78;;;4.30;99.90;;;;;;8222878;28;20103;-77
2023/02/10 14:39:04;;;;;;;17.30;8.10;;;4.30;99.90;;;;;;8228897;28;20162;-78
2023/02/10 14:43:05;;;;;;;19.27;8.00;;;4.30;99.90;;;;;;8228259;28;20027;-78
2023/02/10 14:47:14;;;;;;;17.00;7.70;;;4.30;99.90;;;;;;8227802;28;20030;-78
2023/02/10 14:51:20;;;;;;;15.55;8.23;;;4.20;99.90;;;;;;8228482;28;20404;-77
2023/02/10 14:55:25;;;;;;;15.88;8.18;;;3.90;99.90;;;;;;8227600;28;20023;-77
2023/02/10 14:59:30;;;;;;;18.27;7.28;;;3.90;99.90;;;;;;8226334;28;20031;-77
2023/02/10 15:03:32;;;;;;;15.02;7.53;;;4.10;99.90;;;;;;8227007;28;20026;-77
2023/02/10 15:07:37;;;;;;;16.70;7.43;;;4.00;99.90;;;;;;8227139;28;20019;-78
2023/02/10 15:16:10;;;;;;;17.23;7.13;;;3.50;99.90;;;;;;8227320;28;20547;-78
2023/02/10 15:20:13;;;;;;;14.48;6.20;;;3.30;99.90;;;;;;8228003;28;20415;-77
2023/02/10 15:24:27;;;;;;;16.92;8.45;;;3.50;99.90;;;;;;8228123;28;20057;-77
2023/02/10 15:28:29;;;;;;;14.30;7.38;;;3.20;99.90;;;;;;8225837;28;20019;-76
2023/02/10 15:32:29;;;;;;;13.50;7.22;;;2.80;99.90;;;;;;8229034;28;20027;-76
2023/02/10 15:36:35;;;;;;;14.93;7.47;;;2.50;99.90;;;;;;8227480;28;20085;-77
2023/02/10 15:40:36;;;;;;;19.42;8.32;;;2.30;99.90;;;;;;8225967;28;20103;-78
2023/02/10 15:44:40;;;;;;;23.45;9.40;;;2.10;99.90;;;;;;8227974;28;20027;-80
2023/02/10 15:48:41;;;;;;;20.17;9.80;;;1.90;99.90;;;;;;8229495;28;20043;-79
2023/02/10 15:52:47;;;;;;;19.23;8.93;;;1.80;99.90;;;;;;8228920;28;20122;-78
2023/02/10 15:56:55;;;;;;;21.65;9.15;;;1.70;99.90;;;;;;8224307;28;20031;-78
2023/02/10 16:00:55;;;;;;;24.25;10.98;;;1.60;99.90;;;;;;8229078;28;20030;-79
2023/02/10 16:04:56;;;;;;;16.08;8.50;;;1.60;99.90;;;;;;8229457;28;20491;-79
2023/02/10 16:08:56;;;;;;;20.17;9.40;;;1.40;99.90;;;;;;8215766;28;20039;-79
2023/02/10 16:12:57;;;;;;;21.05;9.40;;;1.30;99.90;;;;;;8224369;28;20027;-79
2023/02/10 16:16:59;;;;;;;19.23;9.55;;;1.10;99.90;;;;;;8226062;28;20058;-79
2023/02/10 16:21:00;;;;;;;24.58;9.80;;;0.90;99.90;;;;;;8234406;28;20093;-79
2023/02/10 16:25:00;;;;;;;24.80;9.07;;;0.70;99.90;;;;;;8231625;28;20046;-80
2023/02/10 16:29:01;;;;;;;22.50;9.18;;;0.50;99.90;;;;;;8234792;28;20038;-80
2023/02/10 16:33:02;;;;;;;22.85;10.02;;;0.30;99.90;;;;;;8234269;28;20488;-81
2023/02/10 16:37:02;;;;;;;23.58;9.75;;;0.20;99.90;;;;;;8224602;28;20034;-81
2023/02/10 16:41:05;;;;;;;22.50;9.77;;;0.10;99.90;;;;;;8224813;28;20532;-86
2023/02/10 16:45:06;;;;;;;18.58;8.63;;;0.00;99.90;;;;;;8225766;28;20031;-85
2023/02/10 16:49:07;;;;;;;18.50;8.07;;;-0.10;99.90;;;;;;8233062;28;20063;-85
2023/02/10 16:53:09;;;;;;;20.98;8.20;;;-0.40;99.90;;;;;;8233206;28;20030;-87
2023/02/10 16:57:10;;;;;;;15.20;7.38;;;-0.50;99.90;;;;;;8234724;28;20039;-85
2023/02/10 17:01:10;;;;;;;18.00;8.45;;;-0.40;99.90;;;;;;8233095;28;20653;-78
2023/02/10 17:05:11;;;;;;;21.83;9.68;;;-0.20;99.90;;;;;;8231453;28;20235;-77
2023/02/10 17:09:18;;;;;;;20.08;8.70;;;-0.50;99.90;;;;;;8224115;28;20023;-79
2023/02/10 17:13:18;;;;;;;16.63;7.65;;;-0.50;99.90;;;;;;8224933;28;20058;-78
2023/02/10 17:17:19;;;;;;;12.13;6.47;;;-0.50;99.90;;;;;;8224081;28;20033;-79
2023/02/10 17:21:19;;;;;;;19.50;7.65;;;-0.50;99.90;;;;;;8225826;28;20065;-79
2023/02/10 17:25:21;;;;;;;15.35;6.70;;;-0.70;99.90;;;;;;8229209;28;20514;-79
2023/02/10 17:29:22;;;;;;;17.92;7.20;;;-1.00;99.90;;;;;;8230533;28;20023;-79
2023/02/10 17:33:25;;;;;;;18.73;8.07;;;-1.10;99.90;;;;;;8225268;28;20518;-79
2023/02/10 17:37:25;;;;;;;18.13;7.22;;;-1.20;99.90;;;;;;8220948;28;20035;-76
2023/02/10 17:41:28;;;;;;;15.35;7.63;;;-1.30;99.90;;;;;;8223276;28;20515;-77
2023/02/10 17:45:28;;;;;;;14.27;6.65;;;-1.50;99.90;;;;;;8217632;28;20030;-79
2023/02/10 17:49:33;;;;;;;28.48;10.73;;;-1.70;99.90;;;;;;8222789;28;20046;-79
2023/02/10 17:53:34;;;;;;;21.83;9.25;;;-1.80;99.90;;;;;;8212528;28;20504;-79
2023/02/10 17:57:34;;;;;;;24.40;10.95;;;-1.90;99.90;;;;;;8221988;28;20034;-79
2023/02/10 18:01:35;;;;;;;24.10;9.98;;;-2.10;99.90;;;;;;8221427;28;20404;-79
2023/02/10 18:05:36;;;;;;;24.10;11.02;;;-2.20;99.90;;;;;;8218889;28;20034;-79
2023/02/10 18:09:36;;;;;;;23.17;10.65;;;-2.20;99.90;;;;;;8215051;28;20038;-79
2023/02/10 18:13:37;;;;;;;33.05;13.07;;;-2.30;99.90;;;;;;8218965;28;20031;-78
2023/02/10 18:17:38;;;;;;;33.83;13.18;;;-2.50;99.90;;;;;;8223858;28;20038;-79
2023/02/10 18:21:51;;;;;;;27.88;12.50;;;-2.50;99.90;;;;;;8228739;28;20031;-78
2023/02/10 18:25:51;;;;;;;22.60;10.88;;;-2.40;99.90;;;;;;8229851;28;20506;-80
2023/02/10 18:29:52;;;;;;;28.90;12.95;;;-1.90;99.90;;;;;;8231547;28;20031;-80
2023/02/10 18:33:54;;;;;;;23.90;10.50;;;-1.90;99.90;;;;;;8232046;28;20630;-78
2023/02/10 18:37:54;;;;;;;23.27;9.80;;;-2.30;99.90;;;;;;8229791;28;20424;-78
2023/02/10 18:41:55;;;;;;;16.35;9.05;;;-2.40;99.90;;;;;;8228293;28;20030;-79
2023/02/10 18:45:56;;;;;;;21.38;10.48;;;-2.70;99.90;;;;;;8226216;28;20467;-77
2023/02/10 18:49:56;;;;;;;30.13;13.93;;;-2.70;99.90;;;;;;8226817;28;20711;-79
2023/02/10 18:53:57;;;;;;;19.55;9.90;;;-2.70;99.90;;;;;;8226931;28;20026;-79
2023/02/10 18:58:01;;;;;;;19.98;8.50;;;-2.60;99.90;;;;;;8218891;28;20030;-79
2023/02/10 19:02:02;;;;;;;19.05;8.27;;;-2.70;99.90;;;;;;8227660;28;20053;-78
2023/02/10 19:06:04;;;;;;;23.60;9.98;;;-3.00;99.90;;;;;;8227565;28;20098;-79
2023/02/10 19:10:05;;;;;;;27.70;11.93;;;-3.10;99.90;;;;;;8226719;28;20042;-79
2023/02/10 19:14:06;;;;;;;25.58;11.93;;;-3.20;99.90;;;;;;8222791;28;20605;-79
2023/02/10 19:18:06;;;;;;;23.30;11.90;;;-3.30;99.90;;;;;;8222974;28;20045;-78
2023/02/10 19:22:08;;;;;;;24.33;11.63;;;-3.20;99.90;;;;;;8223681;28;20026;-79
2023/02/10 19:26:10;;;;;;;19.38;10.93;;;-3.10;99.90;;;;;;8228269;28;20538;-78
2023/02/10 19:30:11;;;;;;;24.65;12.07;;;-3.20;99.90;;;;;;8221490;28;20108;-78
2023/02/10 19:34:11;;;;;;;31.08;11.05;;;-3.10;99.90;;;;;;8222812;28;20034;-78
2023/02/10 19:38:12;;;;;;;28.02;12.45;;;-3.20;99.90;;;;;;8228111;28;20023;-78
2023/02/10 19:42:12;;;;;;;27.40;11.18;;;-3.30;99.90;;;;;;8227757;28;20407;-77
2023/02/10 19:46:14;;;;;;;21.27;10.65;;;-3.40;99.90;;;;;;8231647;28;20022;-78
2023/02/10 19:50:15;;;;;;;21.17;9.00;;;-3.60;99.90;;;;;;8231946;28;20626;-79
2023/02/10 19:54:17;;;;;;;17.73;8.50;;;-3.70;99.90;;;;;;8235769;28;20154;-79
2023/02/10 19:58:17;;;;;;;17.38;8.48;;;-3.80;99.90;;;;;;8235101;28;20023;-79
2023/02/10 20:02:19;;;;;;;15.10;8.52;;;-3.80;99.90;;;;;;8237956;28;20574;-79
2023/02/10 20:06:23;;;;;;;13.27;7.55;;;-3.80;99.90;;;;;;8228162;28;20022;-79
2023/02/10 20:10:24;;;;;;;17.10;7.57;;;-3.90;99.90;;;;;;8234272;28;20078;-79
2023/02/10 20:14:24;;;;;;;19.10;8.68;;;-3.90;99.90;;;;;;8227970;28;20069;-78
2023/02/10 20:18:25;;;;;;;17.67;8.25;;;-4.00;99.90;;;;;;8232679;28;20035;-77
2023/02/10 20:22:26;;;;;;;19.13;8.93;;;-4.10;99.90;;;;;;8233152;28;20114;-78
2023/02/10 20:26:27;;;;;;;20.83;9.48;;;-4.00;99.90;;;;;;8230629;28;20046;-77
2023/02/10 20:30:28;;;;;;;17.90;9.65;;;-4.10;99.90;;;;;;8233119;28;20030;-79
2023/02/10 20:34:28;;;;;;;30.50;12.30;;;-4.00;99.90;;;;;;8232909;28;20717;-78
2023/02/10 20:38:29;;;;;;;30.88;11.55;;;-4.00;99.90;;;;;;8228627;28;20031;-78
2023/02/10 20:42:30;;;;;;;25.75;12.00;;;-4.10;99.90;;;;;;8232533;28;20395;-77
2023/02/10 20:46:32;;;;;;;22.23;10.98;;;-4.00;99.90;;;;;;8231770;28;20533;-78
2023/02/10 20:50:32;;;;;;;23.70;11.13;;;-4.10;99.90;;;;;;8227087;28;20487;-78
2023/02/10 20:54:36;;;;;;;22.00;9.18;;;-4.20;99.90;;;;;;8231976;28;20085;-78
2023/02/10 20:58:37;;;;;;;21.70;10.48;;;-4.30;99.90;;;;;;8232506;28;20073;-78
2023/02/10 21:02:37;;;;;;;23.23;10.57;;;-4.20;99.90;;;;;;8230761;28;20440;-78
2023/02/10 21:06:41;;;;;;;19.40;8.93;;;-4.20;99.90;;;;;;8227402;28;20034;-78
2023/02/10 21:10:43;;;;;;;18.52;8.20;;;-4.20;99.90;;;;;;8227855;28;20105;-77